createdAt,value
2019-04-14T00:02:40.775Z,6.10
2019-04-14T00:05:14.687Z,6.10
2019-04-14T00:07:44.934Z,6.10
2019-04-14T00:10:16.104Z,6.20
2019-04-14T00:12:46.938Z,6.20
2019-04-14T00:15:25.901Z,6.20
2019-04-14T00:17:48.129Z,6.20
2019-04-14T00:20:18.593Z,6.30
2019-04-14T00:22:49.057Z,6.20
2019-04-14T00:25:19.478Z,6.10
2019-04-14T00:27:50.000Z,5.90
2019-04-14T00:30:21.206Z,5.60
2019-04-14T00:32:55.167Z,5.70
2019-04-14T00:35:36.927Z,5.90
2019-04-14T00:38:28.242Z,5.90
2019-04-14T00:41:09.395Z,5.90
2019-04-14T00:43:47.097Z,5.80
2019-04-14T00:46:23.953Z,5.80
2019-04-14T00:48:53.967Z,5.30
2019-04-14T00:51:24.502Z,5.50
2019-04-14T00:53:54.154Z,5.50
2019-04-14T00:56:23.754Z,5.40
2019-04-14T00:58:53.921Z,5.60
2019-04-14T01:01:24.376Z,5.60
2019-04-14T01:03:54.763Z,5.70
2019-04-14T01:06:25.080Z,5.50
2019-04-14T01:08:55.425Z,5.50
2019-04-14T01:11:25.051Z,5.50
2019-04-14T01:13:55.076Z,5.60
2019-04-14T01:16:25.400Z,5.60
2019-04-14T01:18:56.465Z,5.50
2019-04-14T01:21:26.362Z,5.60
2019-04-14T01:23:56.611Z,5.40
2019-04-14T01:26:26.739Z,5.50
2019-04-14T01:28:56.806Z,5.60
2019-04-14T01:31:27.357Z,5.60
2019-04-14T01:33:57.615Z,5.60
2019-04-14T01:36:27.717Z,5.60
2019-04-14T01:38:58.161Z,5.50
2019-04-14T01:41:28.224Z,5.60
2019-04-14T01:43:58.247Z,5.50
2019-04-14T01:46:31.111Z,5.60
2019-04-14T01:49:00.624Z,5.50
2019-04-14T01:51:39.585Z,5.60
2019-04-14T01:54:21.322Z,5.10
2019-04-14T01:57:13.208Z,5.30
2019-04-14T01:59:43.803Z,5.30
2019-04-14T02:02:16.283Z,5.30
2019-04-14T02:04:46.453Z,4.80
2019-04-14T02:07:16.639Z,5.30
2019-04-14T02:09:46.879Z,5.10
2019-04-14T02:12:17.024Z,5.00
2019-04-14T02:14:47.398Z,4.90
2019-04-14T02:17:17.785Z,4.90
2019-04-14T02:19:48.104Z,4.70
2019-04-14T02:22:18.155Z,4.70
2019-04-14T02:24:48.169Z,4.70
2019-04-14T02:27:18.829Z,4.70
2019-04-14T02:29:49.500Z,4.80
2019-04-14T02:32:49.510Z,4.70
2019-04-14T02:37:58.565Z,4.30
2019-04-14T02:43:06.914Z,4.40
2019-04-14T02:45:33.184Z,4.40
2019-04-14T02:48:16.712Z,4.40
2019-04-14T02:53:01.880Z,4.10
2019-04-14T02:55:21.615Z,4.10
2019-04-14T02:58:04.426Z,4.40
2019-04-14T03:00:31.804Z,4.50
2019-04-14T03:02:56.294Z,4.70
2019-04-14T03:05:34.267Z,4.70
2019-04-14T03:10:39.862Z,4.70
2019-04-14T03:13:13.102Z,4.40
2019-04-14T03:15:43.867Z,4.70
2019-04-14T03:21:54.019Z,4.60
2019-04-14T03:24:12.798Z,4.70
2019-04-14T03:27:24.954Z,4.70
2019-04-14T03:42:22.918Z,4.70
2019-04-14T03:44:48.649Z,4.50
2019-04-14T03:47:22.095Z,4.70
2019-04-14T03:49:48.453Z,4.30
2019-04-14T03:52:27.597Z,4.40
2019-04-14T03:54:48.067Z,4.50
2019-04-14T03:56:56.016Z,4.10
2019-04-14T03:59:26.111Z,4.30
2019-04-14T04:01:56.612Z,4.20
2019-04-14T04:04:27.482Z,4.10
2019-04-14T04:06:57.536Z,4.40
2019-04-14T04:09:34.367Z,4.10
2019-04-14T04:12:05.176Z,4.20
2019-04-14T04:14:35.684Z,3.90
2019-04-14T04:17:18.989Z,4.20
2019-04-14T04:19:59.915Z,4.30
2019-04-14T04:22:47.653Z,4.10
2019-04-14T04:25:31.165Z,3.80
2019-04-14T04:28:25.707Z,3.90
2019-04-14T04:31:00.430Z,3.80
2019-04-14T04:33:37.291Z,4.30
2019-04-14T04:36:14.683Z,3.80
2019-04-14T04:38:57.455Z,3.80
2019-04-14T04:41:27.535Z,4.10
2019-04-14T04:43:58.184Z,3.80
2019-04-14T04:46:28.770Z,3.90
2019-04-14T04:49:08.199Z,4.00
2019-04-14T04:51:29.626Z,4.10
2019-04-14T04:53:59.443Z,3.80
2019-04-14T04:56:29.747Z,3.80
2019-04-14T04:58:59.623Z,3.80
2019-04-14T05:01:29.589Z,3.90
2019-04-14T05:04:00.330Z,3.80
2019-04-14T05:07:07.848Z,4.10
2019-04-14T05:10:08.882Z,3.80
2019-04-14T05:12:45.684Z,4.10
2019-04-14T05:15:34.312Z,3.90
2019-04-14T05:18:04.962Z,4.00
2019-04-14T05:20:35.557Z,4.20
2019-04-14T05:23:05.932Z,4.40
2019-04-14T05:25:36.557Z,4.10
2019-04-14T05:28:06.948Z,4.10
2019-04-14T05:30:37.179Z,4.40
2019-04-14T05:33:07.458Z,4.70
2019-04-14T05:35:38.009Z,4.40
2019-04-14T05:38:08.456Z,4.40
2019-04-14T05:40:38.575Z,4.80
2019-04-14T05:43:08.877Z,4.90
2019-04-14T05:45:39.538Z,5.00
2019-04-14T05:48:09.799Z,4.70
2019-04-14T05:50:40.085Z,5.30
2019-04-14T05:53:10.983Z,5.30
2019-04-14T05:55:41.626Z,5.60
2019-04-14T05:58:12.195Z,5.40
2019-04-14T06:00:44.673Z,5.80
2019-04-14T06:03:14.589Z,5.90
2019-04-14T06:05:45.050Z,6.10
2019-04-14T06:08:14.731Z,6.50
2019-04-14T06:10:44.236Z,6.40
2019-04-14T06:13:13.852Z,6.50
2019-04-14T06:15:43.401Z,6.50
2019-04-14T06:18:13.054Z,6.40
2019-04-14T06:20:42.615Z,6.80
2019-04-14T06:23:12.207Z,6.70
2019-04-14T06:25:41.780Z,6.80
2019-04-14T06:28:11.386Z,7.20
2019-04-14T06:30:58.245Z,7.10
2019-04-14T06:33:55.880Z,7.00
2019-04-14T06:36:44.291Z,7.10
2019-04-14T06:39:23.024Z,7.10
2019-04-14T06:41:52.604Z,7.10
2019-04-14T06:44:22.492Z,7.20
2019-04-14T06:46:52.090Z,7.10
2019-04-14T06:49:21.780Z,7.10
2019-04-14T06:51:51.857Z,7.40
2019-04-14T06:54:21.404Z,7.30
2019-04-14T06:56:51.300Z,7.30
2019-04-14T06:59:20.884Z,7.00
2019-04-14T07:01:50.537Z,7.10
2019-04-14T07:04:20.103Z,7.10
2019-04-14T07:06:51.408Z,7.10
2019-04-14T07:09:21.361Z,7.00
2019-04-14T07:11:51.182Z,7.10
2019-04-14T07:14:20.748Z,7.50
2019-04-14T07:16:51.485Z,7.30
2019-04-14T07:19:21.127Z,7.40
2019-04-14T07:21:50.750Z,7.40
2019-04-14T07:24:20.712Z,7.50
2019-04-14T07:26:50.289Z,7.40
2019-04-14T07:29:19.863Z,7.10
2019-04-14T07:32:08.363Z,7.10
2019-04-14T07:35:05.948Z,6.60
2019-04-14T07:37:50.336Z,6.70
2019-04-14T07:40:28.745Z,6.90
2019-04-14T07:43:08.446Z,6.80
2019-04-14T07:46:12.211Z,6.80
2019-04-14T07:48:53.726Z,6.80
2019-04-14T07:51:37.528Z,6.80
2019-04-14T07:54:28.751Z,7.10
2019-04-14T07:57:09.540Z,7.10
2019-04-14T07:59:50.242Z,7.40
2019-04-14T08:02:38.864Z,7.40
2019-04-14T08:05:14.531Z,7.90
2019-04-14T08:07:44.794Z,7.80
2019-04-14T08:10:14.463Z,8.00
2019-04-14T08:12:44.106Z,8.00
2019-04-14T08:15:14.184Z,8.20
2019-04-14T08:17:44.056Z,8.20
2019-04-14T08:20:26.463Z,8.40
2019-04-14T08:22:45.452Z,8.70
2019-04-14T08:25:15.371Z,8.90
2019-04-14T08:27:44.998Z,9.20
2019-04-14T08:30:14.851Z,9.50
2019-04-14T08:32:44.477Z,9.20
2019-04-14T08:35:14.040Z,9.40
2019-04-14T08:37:43.643Z,9.50
2019-04-14T08:40:13.298Z,9.30
2019-04-14T08:43:01.810Z,9.20
2019-04-14T08:45:40.226Z,9.50
2019-04-14T08:48:18.857Z,9.40
2019-04-14T08:51:07.581Z,9.60
2019-04-14T08:53:47.412Z,9.30
2019-04-14T08:56:37.942Z,9.70
2019-04-14T08:59:26.730Z,9.90
2019-04-14T09:02:12.133Z,9.70
2019-04-14T09:04:47.774Z,9.90
2019-04-14T09:07:36.247Z,9.80
2019-04-14T09:10:09.424Z,10.20
2019-04-14T09:12:40.448Z,9.60
2019-04-14T09:15:10.260Z,9.80
2019-04-14T09:17:39.911Z,9.40
2019-04-14T09:20:09.529Z,9.70
2019-04-14T09:22:39.143Z,9.70
2019-04-14T09:25:08.784Z,9.70
2019-04-14T09:27:38.405Z,9.90
2019-04-14T09:30:08.645Z,9.60
2019-04-14T09:32:38.271Z,9.60
2019-04-14T09:35:08.179Z,9.70
2019-04-14T09:37:37.815Z,9.80
2019-04-14T09:40:07.771Z,9.70
2019-04-14T09:42:37.660Z,9.70
2019-04-14T09:45:07.827Z,9.60
2019-04-14T09:47:37.419Z,9.50
2019-04-14T09:50:07.126Z,9.90
2019-04-14T09:52:37.024Z,9.80
2019-04-14T09:55:07.083Z,10.00
2019-04-14T09:57:36.700Z,10.10
2019-04-14T10:00:08.366Z,10.60
2019-04-14T10:02:38.048Z,10.60
2019-04-14T10:05:07.837Z,10.90
2019-04-14T10:07:37.504Z,11.10
2019-04-14T10:10:07.279Z,11.20
2019-04-14T10:12:37.406Z,11.30
2019-04-14T10:15:10.636Z,11.30
2019-04-14T10:17:40.261Z,11.50
2019-04-14T10:20:09.951Z,11.60
2019-04-14T10:22:39.612Z,11.60
2019-04-14T10:25:09.346Z,11.80
2019-04-14T10:27:39.003Z,12.10
2019-04-14T10:30:09.796Z,12.20
2019-04-14T10:32:39.429Z,12.40
2019-04-14T10:35:09.732Z,12.40
2019-04-14T10:37:39.393Z,12.60
2019-04-14T10:40:09.230Z,12.50
2019-04-14T10:42:38.846Z,12.50
2019-04-14T10:45:08.403Z,12.60
2019-04-14T10:47:38.009Z,12.40
2019-04-14T10:50:07.932Z,12.60
2019-04-14T10:52:37.590Z,12.90
2019-04-14T10:55:07.391Z,13.20
2019-04-14T10:57:37.319Z,13.50
2019-04-14T11:00:09.791Z,13.50
2019-04-14T11:02:39.682Z,13.50
2019-04-14T11:05:09.382Z,13.40
2019-04-14T11:07:38.917Z,13.20
2019-04-14T11:10:09.036Z,13.10
2019-04-14T11:12:38.606Z,12.90
2019-04-14T11:15:08.722Z,13.00
2019-04-14T11:17:38.282Z,12.70
2019-04-14T11:20:08.114Z,12.60
2019-04-14T11:22:37.666Z,12.50
2019-04-14T11:25:10.419Z,12.70
2019-04-14T11:27:43.023Z,13.00
2019-04-14T11:30:16.224Z,13.20
2019-04-14T11:32:54.029Z,13.10
2019-04-14T11:35:45.704Z,12.60
2019-04-14T11:38:28.036Z,12.50
2019-04-14T11:40:59.942Z,12.60
2019-04-14T11:43:29.539Z,12.20
2019-04-14T11:45:59.081Z,12.20
2019-04-14T11:48:28.689Z,12.30
2019-04-14T11:50:58.536Z,12.00
2019-04-14T11:53:28.150Z,11.70
2019-04-14T11:55:57.715Z,11.90
2019-04-14T11:58:29.114Z,12.00
2019-04-14T12:01:17.393Z,11.80
2019-04-14T12:04:18.060Z,12.40
2019-04-14T12:07:02.413Z,12.10
2019-04-14T12:09:44.067Z,12.20
2019-04-14T12:12:13.988Z,12.30
2019-04-14T12:14:43.561Z,12.20
2019-04-14T12:17:13.189Z,12.10
2019-04-14T12:19:43.036Z,11.80
2019-04-14T12:22:12.621Z,11.80
2019-04-14T12:24:42.288Z,11.90
2019-04-14T12:27:11.881Z,12.30
2019-04-14T12:29:43.368Z,12.20
2019-04-14T12:32:14.970Z,12.60
2019-04-14T12:34:44.686Z,13.20
2019-04-14T12:37:14.294Z,13.10
2019-04-14T12:39:44.202Z,13.30
2019-04-14T12:42:38.594Z,12.90
2019-04-14T12:45:26.949Z,13.00
2019-04-14T12:48:27.316Z,13.10
2019-04-14T12:51:09.412Z,12.50
2019-04-14T12:53:39.028Z,12.50
2019-04-14T12:56:08.600Z,12.70
2019-04-14T12:58:49.587Z,13.00
2019-04-14T13:01:19.760Z,13.30
2019-04-14T13:03:49.395Z,13.40
2019-04-14T13:06:18.978Z,13.40
2019-04-14T13:08:48.584Z,13.00
2019-04-14T13:11:18.416Z,12.80
2019-04-14T13:13:48.070Z,12.70
2019-04-14T13:16:18.036Z,12.60
2019-04-14T13:18:47.895Z,12.40
2019-04-14T13:21:17.485Z,12.60
2019-04-14T13:23:47.357Z,12.90
2019-04-14T13:26:16.968Z,12.90
2019-04-14T13:28:46.814Z,12.90
2019-04-14T13:31:16.449Z,12.90
2019-04-14T13:33:46.062Z,12.80
2019-04-14T13:36:15.665Z,12.80
2019-04-14T13:38:45.248Z,12.70
2019-04-14T13:41:14.807Z,12.50
2019-04-14T13:43:44.409Z,12.50
2019-04-14T13:46:14.286Z,12.40
2019-04-14T13:48:44.127Z,12.20
2019-04-14T13:51:13.766Z,12.00
2019-04-14T13:53:43.430Z,11.70
2019-04-14T13:56:13.029Z,11.80
2019-04-14T13:58:42.841Z,11.60
2019-04-14T14:01:12.415Z,11.40
2019-04-14T14:03:42.018Z,11.40
2019-04-14T14:06:11.564Z,11.40
2019-04-14T14:08:41.246Z,11.50
2019-04-14T14:11:19.215Z,11.40
2019-04-14T14:13:57.799Z,11.40
2019-04-14T14:16:53.718Z,11.40
2019-04-14T14:19:27.669Z,11.40
2019-04-14T14:22:10.847Z,11.30
2019-04-14T14:24:49.695Z,11.20
2019-04-14T14:27:19.290Z,11.00
2019-04-14T14:29:48.903Z,11.10
2019-04-14T14:32:30.640Z,11.20
2019-04-14T14:35:00.213Z,11.30
2019-04-14T14:37:29.837Z,11.50
2019-04-14T14:39:59.448Z,11.70
2019-04-14T14:42:29.040Z,12.10
2019-04-14T14:45:17.595Z,12.30
2019-04-14T14:47:55.572Z,12.50
2019-04-14T14:50:31.933Z,12.60
2019-04-14T14:53:11.558Z,12.70
2019-04-14T14:55:32.753Z,12.70
2019-04-14T14:58:02.639Z,12.50
2019-04-14T15:00:35.513Z,12.30
2019-04-14T15:03:05.168Z,12.30
2019-04-14T15:05:34.739Z,12.10
2019-04-14T15:08:04.341Z,11.80
2019-04-14T15:10:33.946Z,11.40
2019-04-14T15:13:03.544Z,11.20
2019-04-14T15:15:33.132Z,11.00
2019-04-14T15:18:02.779Z,10.60
2019-04-14T15:20:32.443Z,10.40
2019-04-14T15:23:02.314Z,10.40
2019-04-14T15:25:32.252Z,10.60
2019-04-14T15:28:01.828Z,10.30
2019-04-14T15:30:31.409Z,9.90
2019-04-14T15:33:00.969Z,9.90
2019-04-14T15:35:30.864Z,9.40
2019-04-14T15:38:00.475Z,9.60
2019-04-14T15:40:30.272Z,9.90
2019-04-14T15:42:59.918Z,9.70
2019-04-14T15:45:29.811Z,9.70
2019-04-14T15:47:59.445Z,9.80
2019-04-14T15:50:29.062Z,9.90
2019-04-14T15:52:58.660Z,9.70
2019-04-14T15:55:28.575Z,10.20
2019-04-14T15:58:03.830Z,10.60
2019-04-14T16:00:50.965Z,10.40
2019-04-14T16:03:39.483Z,10.60
2019-04-14T16:06:37.176Z,10.70
2019-04-14T16:09:20.201Z,10.60
2019-04-14T16:12:14.883Z,10.30
2019-04-14T16:14:53.296Z,10.20
2019-04-14T16:17:47.875Z,10.20
2019-04-14T16:20:20.807Z,10.30
2019-04-14T16:22:50.381Z,10.10
2019-04-14T16:25:20.938Z,10.10
2019-04-14T16:28:09.698Z,10.00
2019-04-14T16:30:56.782Z,9.80
2019-04-14T16:33:31.379Z,9.70
2019-04-14T16:36:01.196Z,9.80
2019-04-14T16:38:30.846Z,9.80
2019-04-14T16:41:00.499Z,9.80
2019-04-14T16:43:30.092Z,9.70
2019-04-14T16:45:59.670Z,9.50
2019-04-14T16:48:29.259Z,9.50
2019-04-14T16:50:59.957Z,9.40
2019-04-14T16:53:32.284Z,8.90
2019-04-14T16:56:35.743Z,9.20
2019-04-14T16:59:09.016Z,8.90
2019-04-14T17:01:40.803Z,9.00
2019-04-14T17:04:10.771Z,9.10
2019-04-14T17:06:40.326Z,8.90
2019-04-14T17:09:10.388Z,9.40
2019-04-14T17:11:39.960Z,9.10
2019-04-14T17:14:14.833Z,9.50
2019-04-14T17:17:06.351Z,9.00
2019-04-14T17:19:43.385Z,9.10
2019-04-14T17:22:40.936Z,8.90
2019-04-14T17:25:25.259Z,9.50
2019-04-14T17:28:16.964Z,9.10
2019-04-14T17:30:56.340Z,8.80
2019-04-14T17:33:44.865Z,9.00
2019-04-14T17:36:42.188Z,8.50
2019-04-14T17:39:33.740Z,8.70
2019-04-14T17:42:17.640Z,8.50
2019-04-14T17:45:06.188Z,8.50
2019-04-14T17:47:55.182Z,8.50
2019-04-14T17:50:46.390Z,8.50
2019-04-14T17:53:37.915Z,8.60
2019-04-14T17:56:17.801Z,8.50
2019-04-14T17:59:06.332Z,8.50
2019-04-14T18:01:54.822Z,8.50
2019-04-14T18:04:45.529Z,8.50
2019-04-14T18:07:32.651Z,8.70
2019-04-14T18:10:21.154Z,8.70
2019-04-14T18:13:05.967Z,8.50
2019-04-14T18:16:03.545Z,8.50
2019-04-14T18:19:04.210Z,8.50
2019-04-14T18:21:33.818Z,8.60
2019-04-14T18:24:03.709Z,8.50
2019-04-14T18:26:33.338Z,8.50
2019-04-14T18:29:20.574Z,8.90
2019-04-14T18:32:05.415Z,8.60
2019-04-14T18:34:59.712Z,9.10
2019-04-14T18:37:43.643Z,8.90
2019-04-14T18:40:17.220Z,8.80
2019-04-14T18:42:56.000Z,8.80
2019-04-14T18:45:32.368Z,8.90
2019-04-14T18:48:16.275Z,9.00
2019-04-14T18:51:10.570Z,8.80
2019-04-14T18:54:02.386Z,9.10
2019-04-14T18:56:49.185Z,8.80
2019-04-14T18:59:32.143Z,8.50
2019-04-14T19:02:01.965Z,8.50
2019-04-14T19:04:33.420Z,8.50
2019-04-14T19:07:03.000Z,8.50
2019-04-14T19:09:32.890Z,8.40
2019-04-14T19:12:21.482Z,8.40
2019-04-14T19:14:54.620Z,8.50
2019-04-14T19:17:45.903Z,8.70
2019-04-14T19:20:16.737Z,8.20
2019-04-14T19:22:46.377Z,8.10
2019-04-14T19:25:16.232Z,8.20
2019-04-14T19:27:46.101Z,8.10
2019-04-14T19:30:15.862Z,8.50
2019-04-14T19:32:45.468Z,8.40
2019-04-14T19:35:15.016Z,8.50
2019-04-14T19:37:44.890Z,8.60
2019-04-14T19:40:14.548Z,8.50
2019-04-14T19:42:44.140Z,8.50
2019-04-14T19:45:16.291Z,8.50
2019-04-14T19:47:45.871Z,8.50
2019-04-14T19:50:15.721Z,8.50
2019-04-14T19:52:45.349Z,8.50
2019-04-14T19:55:20.709Z,8.70
2019-04-14T19:57:46.136Z,8.70
2019-04-14T20:00:15.981Z,8.50
2019-04-14T20:02:45.511Z,8.50
2019-04-14T20:05:15.408Z,8.80
2019-04-14T20:07:44.944Z,8.50
2019-04-14T20:10:14.757Z,9.00
2019-04-14T20:12:44.374Z,8.60
2019-04-14T20:15:16.798Z,9.00
2019-04-14T20:18:17.388Z,9.00
2019-04-14T20:21:02.151Z,8.70
2019-04-14T20:23:45.036Z,8.80
2019-04-14T20:26:48.678Z,8.70
2019-04-14T20:29:27.659Z,9.00
2019-04-14T20:32:16.247Z,8.70
2019-04-14T20:34:45.888Z,8.50
2019-04-14T20:37:15.557Z,8.70
2019-04-14T20:39:45.674Z,8.60
2019-04-14T20:42:15.355Z,8.50
2019-04-14T20:44:45.137Z,9.00
2019-04-14T20:47:14.904Z,8.60
2019-04-14T20:49:44.437Z,9.10
2019-04-14T20:52:14.307Z,9.00
2019-04-14T20:54:43.922Z,8.50
2019-04-14T20:57:13.764Z,8.80
2019-04-14T20:59:43.314Z,8.50
2019-04-14T21:02:41.194Z,8.80
2019-04-14T21:05:29.803Z,8.80
2019-04-14T21:08:30.329Z,9.10
2019-04-14T21:11:07.107Z,9.00
2019-04-14T21:14:01.424Z,9.00
2019-04-14T21:16:44.687Z,8.80
2019-04-14T21:19:21.248Z,8.90
2019-04-14T21:22:12.758Z,9.10
2019-04-14T21:25:07.208Z,8.80
2019-04-14T21:28:01.456Z,9.10
2019-04-14T21:30:55.879Z,9.00
2019-04-14T21:33:53.308Z,9.50
2019-04-14T21:36:30.587Z,9.10
2019-04-14T21:39:14.525Z,9.40
2019-04-14T21:41:45.598Z,9.60
2019-04-14T21:44:15.166Z,9.40
2019-04-14T21:46:44.730Z,8.90
2019-04-14T21:49:14.290Z,9.10
2019-04-14T21:52:06.223Z,9.40
2019-04-14T21:54:35.845Z,9.40
2019-04-14T21:57:32.238Z,9.00
2019-04-14T22:00:23.548Z,8.90
2019-04-14T22:03:10.438Z,9.10
2019-04-14T22:05:49.077Z,9.30
2019-04-14T22:08:25.152Z,9.30
2019-04-14T22:11:00.005Z,9.20
2019-04-14T22:13:29.573Z,9.50
2019-04-14T22:15:59.375Z,9.40
2019-04-14T22:18:28.931Z,9.40
2019-04-14T22:20:58.530Z,9.30
2019-04-14T22:23:28.388Z,9.30
2019-04-14T22:25:58.200Z,9.50
2019-04-14T22:28:27.917Z,9.30
2019-04-14T22:30:57.525Z,9.50
2019-04-14T22:33:27.126Z,9.50
2019-04-14T22:35:56.803Z,9.10
2019-04-14T22:38:26.954Z,9.20
2019-04-14T22:40:56.798Z,9.50
2019-04-14T22:43:26.380Z,9.50
2019-04-14T22:45:55.964Z,9.40
2019-04-14T22:48:25.529Z,9.30
2019-04-14T22:50:55.140Z,9.50
2019-04-14T22:53:24.676Z,9.40
2019-04-14T22:55:54.633Z,9.20
2019-04-14T22:58:24.207Z,9.20
2019-04-14T23:01:12.727Z,9.50
2019-04-14T23:04:04.228Z,9.20
2019-04-14T23:06:52.728Z,9.50
2019-04-14T23:09:29.871Z,9.40
2019-04-14T23:12:36.573Z,9.50
2019-04-14T23:15:18.572Z,9.30
2019-04-14T23:18:13.146Z,9.60
2019-04-14T23:20:55.879Z,9.60
2019-04-14T23:23:44.366Z,9.30
2019-04-14T23:26:13.934Z,9.70
2019-04-14T23:28:44.088Z,9.50
2019-04-14T23:31:13.638Z,9.30
2019-04-14T23:33:43.280Z,9.50
2019-04-14T23:36:12.826Z,9.60
2019-04-14T23:38:42.437Z,9.60
2019-04-14T23:41:12.025Z,9.90
2019-04-14T23:43:41.637Z,9.80
2019-04-14T23:46:11.224Z,9.90
2019-04-14T23:48:40.813Z,9.90
2019-04-14T23:51:11.431Z,9.70
2019-04-14T23:53:41.039Z,9.90
2019-04-14T23:56:10.872Z,9.80
2019-04-14T23:58:40.460Z,9.80
